sensor_id;sensor_type;location;lat;lon;timestamp;pressure;altitude;pressure_sealevel;temperature;humidity
5812;BME280;2932;52.400;9.558;2023-05-09T00:00:13;101374.13;;;17.87;53.04
5812;BME280;2932;52.400;9.558;2023-05-09T00:02:39;101373.53;;;17.74;53.24
5812;BME280;2932;52.400;9.558;2023-05-09T00:05:05;101370.03;;;17.81;53.26
5812;BME280;2932;52.400;9.558;2023-05-09T00:07:32;101371.91;;;17.73;53.75
5812;BME280;2932;52.400;9.558;2023-05-09T00:09:59;101366.63;;;17.68;53.67
5812;BME280;2932;52.400;9.558;2023-05-09T00:12:24;101362.25;;;17.71;53.98
5812;BME280;2932;52.400;9.558;2023-05-09T00:14:50;101362.69;;;17.73;53.57
5812;BME280;2932;52.400;9.558;2023-05-09T00:17:19;101359.47;;;17.71;53.83
5812;BME280;2932;52.400;9.558;2023-05-09T00:19:47;101360.59;;;17.66;54.15
5812;BME280;2932;52.400;9.558;2023-05-09T00:22:13;101354.09;;;17.62;54.20
5812;BME280;2932;52.400;9.558;2023-05-09T00:24:38;101346.38;;;17.52;54.33
5812;BME280;2932;52.400;9.558;2023-05-09T00:27:03;101355.00;;;17.43;54.28
5812;BME280;2932;52.400;9.558;2023-05-09T00:29:29;101350.34;;;17.51;54.38
5812;BME280;2932;52.400;9.558;2023-05-09T00:31:54;101349.78;;;17.42;54.28
5812;BME280;2932;52.400;9.558;2023-05-09T00:34:20;101348.66;;;17.46;54.84
5812;BME280;2932;52.400;9.558;2023-05-09T00:36:45;101339.97;;;17.28;54.91
5812;BME280;2932;52.400;9.558;2023-05-09T00:39:11;101345.56;;;17.51;54.34
5812;BME280;2932;52.400;9.558;2023-05-09T00:41:37;101336.31;;;17.47;54.56
5812;BME280;2932;52.400;9.558;2023-05-09T00:44:02;101330.75;;;17.51;54.14
5812;BME280;2932;52.400;9.558;2023-05-09T00:46:28;101331.94;;;17.50;54.30
5812;BME280;2932;52.400;9.558;2023-05-09T00:48:53;101328.72;;;17.48;54.41
5812;BME280;2932;52.400;9.558;2023-05-09T00:51:20;101324.19;;;17.40;54.46
5812;BME280;2932;52.400;9.558;2023-05-09T00:53:46;101321.94;;;17.26;54.90
5812;BME280;2932;52.400;9.558;2023-05-09T00:56:12;101330.34;;;17.26;54.93
5812;BME280;2932;52.400;9.558;2023-05-09T00:58:38;101322.75;;;17.26;54.93
5812;BME280;2932;52.400;9.558;2023-05-09T01:01:04;101319.59;;;17.28;54.81
5812;BME280;2932;52.400;9.558;2023-05-09T01:03:31;101312.22;;;17.16;54.82
5812;BME280;2932;52.400;9.558;2023-05-09T01:08:58;101301.84;;;17.17;54.81
5812;BME280;2932;52.400;9.558;2023-05-09T01:14:11;101286.06;;;17.05;54.88
5812;BME280;2932;52.400;9.558;2023-05-09T01:16:46;101292.53;;;16.86;55.39
5812;BME280;2932;52.400;9.558;2023-05-09T01:22:11;101281.66;;;17.04;55.06
5812;BME280;2932;52.400;9.558;2023-05-09T01:29:57;101278.50;;;17.06;55.14
5812;BME280;2932;52.400;9.558;2023-05-09T01:32:25;101284.16;;;17.09;54.75
5812;BME280;2932;52.400;9.558;2023-05-09T01:34:54;101278.38;;;16.98;54.60
5812;BME280;2932;52.400;9.558;2023-05-09T01:37:28;101273.66;;;17.03;54.86
5812;BME280;2932;52.400;9.558;2023-05-09T01:39:59;101268.31;;;16.94;54.92
5812;BME280;2932;52.400;9.558;2023-05-09T01:42:27;101271.84;;;16.91;54.91
5812;BME280;2932;52.400;9.558;2023-05-09T01:44:55;101267.88;;;16.92;54.78
5812;BME280;2932;52.400;9.558;2023-05-09T01:47:22;101267.63;;;16.78;54.95
5812;BME280;2932;52.400;9.558;2023-05-09T01:49:48;101266.94;;;16.84;55.06
5812;BME280;2932;52.400;9.558;2023-05-09T01:52:15;101270.91;;;16.83;55.39
5812;BME280;2932;52.400;9.558;2023-05-09T01:54:43;101269.84;;;16.91;54.94
5812;BME280;2932;52.400;9.558;2023-05-09T01:57:10;101272.41;;;17.00;54.84
5812;BME280;2932;52.400;9.558;2023-05-09T01:59:38;101265.81;;;16.89;54.71
5812;BME280;2932;52.400;9.558;2023-05-09T02:02:03;101268.31;;;16.94;54.83
5812;BME280;2932;52.400;9.558;2023-05-09T02:04:31;101267.50;;;16.93;55.06
5812;BME280;2932;52.400;9.558;2023-05-09T02:06:57;101270.72;;;16.95;54.89
5812;BME280;2932;52.400;9.558;2023-05-09T02:09:23;101269.41;;;16.89;55.14
5812;BME280;2932;52.400;9.558;2023-05-09T02:11:48;101262.78;;;16.75;55.29
5812;BME280;2932;52.400;9.558;2023-05-09T02:14:14;101259.50;;;16.69;55.29
5812;BME280;2932;52.400;9.558;2023-05-09T02:16:41;101250.22;;;16.88;55.25
5812;BME280;2932;52.400;9.558;2023-05-09T02:19:06;101251.09;;;16.92;54.84
5812;BME280;2932;52.400;9.558;2023-05-09T02:21:32;101247.75;;;16.83;55.28
5812;BME280;2932;52.400;9.558;2023-05-09T02:23:57;101251.91;;;16.92;55.24
5812;BME280;2932;52.400;9.558;2023-05-09T02:26:26;101253.84;;;16.88;55.04
5812;BME280;2932;52.400;9.558;2023-05-09T02:28:53;101256.63;;;16.88;55.11
5812;BME280;2932;52.400;9.558;2023-05-09T02:31:21;101257.38;;;16.85;55.16
5812;BME280;2932;52.400;9.558;2023-05-09T02:33:52;101253.41;;;16.86;54.85
5812;BME280;2932;52.400;9.558;2023-05-09T02:36:19;101255.75;;;16.84;54.95
5812;BME280;2932;52.400;9.558;2023-05-09T02:38:45;101255.06;;;16.91;54.93
5812;BME280;2932;52.400;9.558;2023-05-09T02:41:12;101253.09;;;16.91;54.90
5812;BME280;2932;52.400;9.558;2023-05-09T02:43:38;101244.19;;;16.86;55.05
5812;BME280;2932;52.400;9.558;2023-05-09T02:46:03;101253.94;;;16.95;55.11
5812;BME280;2932;52.400;9.558;2023-05-09T02:48:29;101245.94;;;16.94;54.83
5812;BME280;2932;52.400;9.558;2023-05-09T02:50:54;101242.84;;;16.99;54.92
5812;BME280;2932;52.400;9.558;2023-05-09T02:53:19;101243.53;;;16.92;54.92
5812;BME280;2932;52.400;9.558;2023-05-09T02:55:45;101238.81;;;16.74;55.32
5812;BME280;2932;52.400;9.558;2023-05-09T02:58:10;101243.31;;;16.59;55.66
5812;BME280;2932;52.400;9.558;2023-05-09T03:00:35;101236.03;;;16.54;55.71
5812;BME280;2932;52.400;9.558;2023-05-09T03:03:01;101230.59;;;16.61;55.55
5812;BME280;2932;52.400;9.558;2023-05-09T03:05:26;101227.53;;;16.66;55.91
5812;BME280;2932;52.400;9.558;2023-05-09T03:07:52;101233.63;;;16.53;56.02
5812;BME280;2932;52.400;9.558;2023-05-09T03:10:17;101229.09;;;16.45;55.90
5812;BME280;2932;52.400;9.558;2023-05-09T03:12:43;101225.38;;;16.60;55.92
5812;BME280;2932;52.400;9.558;2023-05-09T03:15:08;101220.47;;;16.53;55.73
5812;BME280;2932;52.400;9.558;2023-05-09T03:17:34;101227.03;;;16.42;56.10
5812;BME280;2932;52.400;9.558;2023-05-09T03:19:59;101220.47;;;16.53;55.90
5812;BME280;2932;52.400;9.558;2023-05-09T03:22:25;101219.22;;;16.51;56.06
5812;BME280;2932;52.400;9.558;2023-05-09T03:24:50;101217.44;;;16.39;56.04
5812;BME280;2932;52.400;9.558;2023-05-09T03:27:16;101208.78;;;16.25;56.49
5812;BME280;2932;52.400;9.558;2023-05-09T03:29:41;101212.22;;;16.38;55.96
5812;BME280;2932;52.400;9.558;2023-05-09T03:32:06;101205.34;;;16.12;56.60
5812;BME280;2932;52.400;9.558;2023-05-09T03:34:32;101210.41;;;16.07;56.80
5812;BME280;2932;52.400;9.558;2023-05-09T03:36:57;101207.97;;;16.24;56.68
5812;BME280;2932;52.400;9.558;2023-05-09T03:39:23;101220.47;;;16.11;56.39
5812;BME280;2932;52.400;9.558;2023-05-09T03:41:48;101215.44;;;15.97;56.89
5812;BME280;2932;52.400;9.558;2023-05-09T03:44:13;101215.63;;;16.08;56.83
5812;BME280;2932;52.400;9.558;2023-05-09T03:46:39;101205.72;;;16.11;57.05
5812;BME280;2932;52.400;9.558;2023-05-09T03:49:04;101208.78;;;16.06;57.06
5812;BME280;2932;52.400;9.558;2023-05-09T03:51:30;101202.09;;;16.10;56.84
5812;BME280;2932;52.400;9.558;2023-05-09T03:53:56;101198.34;;;16.22;56.87
5812;BME280;2932;52.400;9.558;2023-05-09T03:56:21;101197.19;;;16.23;56.61
5812;BME280;2932;52.400;9.558;2023-05-09T03:58:47;101196.22;;;16.15;56.99
5812;BME280;2932;52.400;9.558;2023-05-09T04:01:12;101194.88;;;16.28;56.48
5812;BME280;2932;52.400;9.558;2023-05-09T04:03:38;101190.78;;;16.22;56.87
5812;BME280;2932;52.400;9.558;2023-05-09T04:06:04;101194.25;;;16.16;56.66
5812;BME280;2932;52.400;9.558;2023-05-09T04:08:30;101186.31;;;16.18;56.80
5812;BME280;2932;52.400;9.558;2023-05-09T04:10:56;101188.81;;;16.04;57.04
5812;BME280;2932;52.400;9.558;2023-05-09T04:13:21;101186.25;;;16.14;56.83
5812;BME280;2932;52.400;9.558;2023-05-09T04:15:47;101187.78;;;16.12;57.05
5812;BME280;2932;52.400;9.558;2023-05-09T04:18:12;101190.78;;;16.22;57.08
5812;BME280;2932;52.400;9.558;2023-05-09T04:20:38;101185.63;;;16.47;56.26
5812;BME280;2932;52.400;9.558;2023-05-09T04:23:03;101184.97;;;16.54;56.29
5812;BME280;2932;52.400;9.558;2023-05-09T04:25:29;101187.69;;;16.50;56.33
5812;BME280;2932;52.400;9.558;2023-05-09T04:27:55;101189.72;;;16.53;56.19
5812;BME280;2932;52.400;9.558;2023-05-09T04:30:22;101191.34;;;16.54;56.18
5812;BME280;2932;52.400;9.558;2023-05-09T04:32:47;101184.72;;;16.62;56.14
5812;BME280;2932;52.400;9.558;2023-05-09T04:35:13;101181.16;;;16.43;56.46
5812;BME280;2932;52.400;9.558;2023-05-09T04:37:38;101182.47;;;16.49;56.19
5812;BME280;2932;52.400;9.558;2023-05-09T04:40:04;101189.50;;;16.62;56.49
5812;BME280;2932;52.400;9.558;2023-05-09T04:42:30;101180.69;;;16.60;56.28
5812;BME280;2932;52.400;9.558;2023-05-09T04:44:58;101174.97;;;16.53;56.17
5812;BME280;2932;52.400;9.558;2023-05-09T04:47:23;101172.91;;;16.50;56.45
5812;BME280;2932;52.400;9.558;2023-05-09T04:49:49;101171.84;;;16.58;56.72
5812;BME280;2932;52.400;9.558;2023-05-09T04:52:14;101173.81;;;16.77;56.39
5812;BME280;2932;52.400;9.558;2023-05-09T04:54:39;101161.84;;;16.80;56.09
5812;BME280;2932;52.400;9.558;2023-05-09T04:57:05;101162.78;;;16.87;55.76
5812;BME280;2932;52.400;9.558;2023-05-09T04:59:31;101162.72;;;16.61;56.38
5812;BME280;2932;52.400;9.558;2023-05-09T05:01:56;101165.53;;;16.61;56.23
5812;BME280;2932;52.400;9.558;2023-05-09T05:04:22;101165.66;;;16.45;56.73
5812;BME280;2932;52.400;9.558;2023-05-09T05:06:47;101158.97;;;16.27;56.73
5812;BME280;2932;52.400;9.558;2023-05-09T05:09:12;101167.25;;;16.46;57.13
5812;BME280;2932;52.400;9.558;2023-05-09T05:11:38;101172.75;;;16.39;57.03
5812;BME280;2932;52.400;9.558;2023-05-09T05:14:03;101165.63;;;16.64;57.06
5812;BME280;2932;52.400;9.558;2023-05-09T05:16:28;101156.16;;;16.50;56.69
5812;BME280;2932;52.400;9.558;2023-05-09T05:18:54;101165.63;;;16.64;57.05
5812;BME280;2932;52.400;9.558;2023-05-09T05:21:21;101161.69;;;16.69;56.89
5812;BME280;2932;52.400;9.558;2023-05-09T05:23:47;101165.06;;;16.82;56.85
5812;BME280;2932;52.400;9.558;2023-05-09T05:26:12;101156.00;;;16.88;56.69
5812;BME280;2932;52.400;9.558;2023-05-09T05:28:37;101154.50;;;16.94;56.25
5812;BME280;2932;52.400;9.558;2023-05-09T05:31:03;101157.41;;;16.75;56.52
5812;BME280;2932;52.400;9.558;2023-05-09T05:33:28;101152.47;;;16.91;56.04
5812;BME280;2932;52.400;9.558;2023-05-09T05:35:53;101157.94;;;16.84;56.14
5812;BME280;2932;52.400;9.558;2023-05-09T05:38:18;101144.81;;;16.88;56.12
5812;BME280;2932;52.400;9.558;2023-05-09T05:40:44;101146.28;;;16.79;55.99
5812;BME280;2932;52.400;9.558;2023-05-09T05:43:09;101143.69;;;16.93;56.20
5812;BME280;2932;52.400;9.558;2023-05-09T05:45:34;101137.50;;;16.80;56.44
5812;BME280;2932;52.400;9.558;2023-05-09T05:48:00;101132.63;;;17.00;56.44
5812;BME280;2932;52.400;9.558;2023-05-09T05:50:29;101132.13;;;16.94;56.10
5812;BME280;2932;52.400;9.558;2023-05-09T05:52:54;101128.28;;;17.03;56.11
5812;BME280;2932;52.400;9.558;2023-05-09T05:55:20;101136.09;;;17.20;55.84
5812;BME280;2932;52.400;9.558;2023-05-09T05:57:45;101127.94;;;17.08;55.98
5812;BME280;2932;52.400;9.558;2023-05-09T06:00:12;101125.00;;;17.27;55.91
5812;BME280;2932;52.400;9.558;2023-05-09T06:02:41;101133.09;;;17.65;55.71
5812;BME280;2932;52.400;9.558;2023-05-09T06:05:08;101135.31;;;17.83;55.37
5812;BME280;2932;52.400;9.558;2023-05-09T06:07:34;101122.66;;;17.99;54.72
5812;BME280;2932;52.400;9.558;2023-05-09T06:10:00;101122.28;;;18.01;54.88
5812;BME280;2932;52.400;9.558;2023-05-09T06:12:25;101121.84;;;18.36;54.18
5812;BME280;2932;52.400;9.558;2023-05-09T06:14:50;101123.88;;;18.39;54.02
5812;BME280;2932;52.400;9.558;2023-05-09T06:17:15;101121.47;;;18.41;53.56
5812;BME280;2932;52.400;9.558;2023-05-09T06:19:41;101123.16;;;18.53;53.45
5812;BME280;2932;52.400;9.558;2023-05-09T06:22:07;101113.22;;;18.59;53.70
5812;BME280;2932;52.400;9.558;2023-05-09T06:24:32;101116.38;;;18.54;53.52
5812;BME280;2932;52.400;9.558;2023-05-09T06:26:57;101111.44;;;18.37;53.72
5812;BME280;2932;52.400;9.558;2023-05-09T06:29:23;101110.72;;;18.47;53.90
5812;BME280;2932;52.400;9.558;2023-05-09T06:31:48;101108.75;;;18.51;53.92
5812;BME280;2932;52.400;9.558;2023-05-09T06:34:13;101104.06;;;18.62;53.81
5812;BME280;2932;52.400;9.558;2023-05-09T06:36:39;101098.38;;;18.55;53.56
5812;BME280;2932;52.400;9.558;2023-05-09T06:39:04;101102.78;;;18.56;53.64
5812;BME280;2932;52.400;9.558;2023-05-09T06:41:30;101088.50;;;18.68;53.61
5812;BME280;2932;52.400;9.558;2023-05-09T06:43:55;101084.91;;;18.71;53.88
5812;BME280;2932;52.400;9.558;2023-05-09T06:46:20;101081.16;;;18.56;53.70
5812;BME280;2932;52.400;9.558;2023-05-09T06:48:46;101084.06;;;18.63;53.91
5812;BME280;2932;52.400;9.558;2023-05-09T06:51:11;101080.91;;;18.72;54.03
5812;BME280;2932;52.400;9.558;2023-05-09T06:53:37;101085.91;;;18.49;54.00
5812;BME280;2932;52.400;9.558;2023-05-09T06:56:02;101072.34;;;18.54;54.17
5812;BME280;2932;52.400;9.558;2023-05-09T06:58:28;101079.41;;;18.34;54.58
5812;BME280;2932;52.400;9.558;2023-05-09T07:00:53;101069.69;;;18.72;54.30
5812;BME280;2932;52.400;9.558;2023-05-09T07:03:19;101067.47;;;19.03;54.38
5812;BME280;2932;52.400;9.558;2023-05-09T07:05:44;101057.47;;;19.05;53.83
5812;BME280;2932;52.400;9.558;2023-05-09T07:08:09;101054.91;;;18.82;54.54
5812;BME280;2932;52.400;9.558;2023-05-09T07:10:35;101059.91;;;19.21;53.81
5812;BME280;2932;52.400;9.558;2023-05-09T07:13:00;101040.69;;;19.16;53.47
5812;BME280;2932;52.400;9.558;2023-05-09T07:15:26;101054.34;;;19.28;53.73
5812;BME280;2932;52.400;9.558;2023-05-09T07:17:51;101057.69;;;19.51;53.42
5812;BME280;2932;52.400;9.558;2023-05-09T07:20:17;101045.66;;;19.51;53.09
5812;BME280;2932;52.400;9.558;2023-05-09T07:22:42;101046.44;;;19.62;53.36
5812;BME280;2932;52.400;9.558;2023-05-09T07:25:08;101045.25;;;19.52;53.49
5812;BME280;2932;52.400;9.558;2023-05-09T07:27:34;101040.84;;;19.58;53.45
5812;BME280;2932;52.400;9.558;2023-05-09T07:30:00;101044.44;;;19.52;53.71
5812;BME280;2932;52.400;9.558;2023-05-09T07:32:26;101033.25;;;19.70;53.58
5812;BME280;2932;52.400;9.558;2023-05-09T07:34:53;101024.03;;;19.58;53.46
5812;BME280;2932;52.400;9.558;2023-05-09T07:37:19;101016.00;;;19.71;53.36
5812;BME280;2932;52.400;9.558;2023-05-09T07:39:44;101013.97;;;19.64;53.38
5812;BME280;2932;52.400;9.558;2023-05-09T07:42:11;101014.38;;;19.67;53.88
5812;BME280;2932;52.400;9.558;2023-05-09T07:44:37;101028.03;;;19.79;53.75
5812;BME280;2932;52.400;9.558;2023-05-09T07:47:02;101013.59;;;20.02;53.73
5812;BME280;2932;52.400;9.558;2023-05-09T07:49:29;101000.38;;;20.13;53.74
5812;BME280;2932;52.400;9.558;2023-05-09T07:51:54;101003.56;;;20.40;52.93
5812;BME280;2932;52.400;9.558;2023-05-09T07:54:20;101002.34;;;20.51;52.87
5812;BME280;2932;52.400;9.558;2023-05-09T07:56:45;101003.53;;;20.64;52.28
5812;BME280;2932;52.400;9.558;2023-05-09T07:59:10;100999.13;;;20.67;52.81
5812;BME280;2932;52.400;9.558;2023-05-09T08:01:36;100994.22;;;20.82;52.33
5812;BME280;2932;52.400;9.558;2023-05-09T08:04:01;100986.25;;;20.73;52.29
5812;BME280;2932;52.400;9.558;2023-05-09T08:06:29;100985.44;;;20.69;52.43
5812;BME280;2932;52.400;9.558;2023-05-09T08:08:54;100975.81;;;20.63;53.02
5812;BME280;2932;52.400;9.558;2023-05-09T08:11:19;100975.00;;;20.66;53.07
5812;BME280;2932;52.400;9.558;2023-05-09T08:13:45;100972.53;;;20.82;52.78
5812;BME280;2932;52.400;9.558;2023-05-09T08:16:12;100980.56;;;20.80;52.97
5812;BME280;2932;52.400;9.558;2023-05-09T08:18:37;100979.38;;;20.81;52.79
5812;BME280;2932;52.400;9.558;2023-05-09T08:21:03;100974.06;;;21.05;52.94
5812;BME280;2932;52.400;9.558;2023-05-09T08:23:28;100960.81;;;21.02;53.00
5812;BME280;2932;52.400;9.558;2023-05-09T08:25:54;100956.31;;;21.18;53.11
5812;BME280;2932;52.400;9.558;2023-05-09T08:28:20;100957.41;;;21.39;52.34
5812;BME280;2932;52.400;9.558;2023-05-09T08:30:51;100955.28;;;21.57;51.91
5812;BME280;2932;52.400;9.558;2023-05-09T08:33:17;100951.25;;;21.58;52.46
5812;BME280;2932;52.400;9.558;2023-05-09T08:35:42;100945.75;;;21.92;52.07
5812;BME280;2932;52.400;9.558;2023-05-09T08:38:08;100960.28;;;21.87;51.57
5812;BME280;2932;52.400;9.558;2023-05-09T08:40:37;100941.94;;;21.64;51.97
5812;BME280;2932;52.400;9.558;2023-05-09T08:43:05;100940.56;;;21.87;51.92
5812;BME280;2932;52.400;9.558;2023-05-09T08:45:34;100933.22;;;21.96;51.62
5812;BME280;2932;52.400;9.558;2023-05-09T08:48:02;100946.13;;;21.94;51.74
5812;BME280;2932;52.400;9.558;2023-05-09T08:50:27;100938.34;;;22.09;51.24
5812;BME280;2932;52.400;9.558;2023-05-09T08:52:53;100926.50;;;22.28;51.06
5812;BME280;2932;52.400;9.558;2023-05-09T08:55:19;100931.09;;;22.49;50.75
5812;BME280;2932;52.400;9.558;2023-05-09T08:57:45;100921.38;;;22.53;50.69
5812;BME280;2932;52.400;9.558;2023-05-09T09:00:11;100923.44;;;22.83;50.70
5812;BME280;2932;52.400;9.558;2023-05-09T09:02:40;100923.16;;;23.05;49.89
5812;BME280;2932;52.400;9.558;2023-05-09T09:05:06;100919.13;;;23.33;49.80
5812;BME280;2932;52.400;9.558;2023-05-09T09:10:16;100906.81;;;23.19;49.81
5812;BME280;2932;52.400;9.558;2023-05-09T09:12:44;100911.53;;;23.56;50.09
5812;BME280;2932;52.400;9.558;2023-05-09T09:15:14;100903.44;;;23.58;49.21
5812;BME280;2932;52.400;9.558;2023-05-09T09:17:42;100903.72;;;23.64;49.53
5812;BME280;2932;52.400;9.558;2023-05-09T09:20:11;100899.59;;;23.69;49.30
5812;BME280;2932;52.400;9.558;2023-05-09T09:22:40;100890.22;;;23.75;49.07
5812;BME280;2932;52.400;9.558;2023-05-09T09:25:07;100887.44;;;23.72;49.07
5812;BME280;2932;52.400;9.558;2023-05-09T09:27:32;100874.00;;;23.56;49.30
5812;BME280;2932;52.400;9.558;2023-05-09T09:30:09;100888.06;;;23.83;49.30
5812;BME280;2932;52.400;9.558;2023-05-09T09:32:35;100879.91;;;24.08;48.64
5812;BME280;2932;52.400;9.558;2023-05-09T09:35:06;100884.84;;;24.04;48.95
5812;BME280;2932;52.400;9.558;2023-05-09T09:37:36;100875.19;;;24.02;48.74
5812;BME280;2932;52.400;9.558;2023-05-09T09:40:06;100866.66;;;24.05;48.50
5812;BME280;2932;52.400;9.558;2023-05-09T09:42:42;100866.56;;;24.32;48.52
5812;BME280;2932;52.400;9.558;2023-05-09T09:45:16;100851.63;;;24.51;47.58
5812;BME280;2932;52.400;9.558;2023-05-09T09:47:43;100856.69;;;24.60;48.26
5812;BME280;2932;52.400;9.558;2023-05-09T09:50:13;100844.06;;;24.45;48.39
5812;BME280;2932;52.400;9.558;2023-05-09T09:52:43;100849.50;;;24.55;48.17
5812;BME280;2932;52.400;9.558;2023-05-09T09:55:09;100847.06;;;24.38;48.71
5812;BME280;2932;52.400;9.558;2023-05-09T09:57:36;100841.38;;;24.77;48.02
5812;BME280;2932;52.400;9.558;2023-05-09T10:00:04;100822.81;;;24.92;46.81
5812;BME280;2932;52.400;9.558;2023-05-09T10:02:31;100822.81;;;24.92;47.37
5812;BME280;2932;52.400;9.558;2023-05-09T10:05:05;100825.06;;;25.01;47.66
5812;BME280;2932;52.400;9.558;2023-05-09T10:07:33;100819.75;;;25.03;47.71
5812;BME280;2932;52.400;9.558;2023-05-09T10:09:59;100810.09;;;24.65;48.38
5812;BME280;2932;52.400;9.558;2023-05-09T10:12:25;100811.25;;;24.67;48.40
5812;BME280;2932;52.400;9.558;2023-05-09T10:14:51;100803.66;;;25.00;47.60
5812;BME280;2932;52.400;9.558;2023-05-09T10:17:18;100798.53;;;25.44;46.71
5812;BME280;2932;52.400;9.558;2023-05-09T10:19:48;100815.59;;;25.56;46.89
5812;BME280;2932;52.400;9.558;2023-05-09T10:22:15;100805.34;;;25.30;47.39
5812;BME280;2932;52.400;9.558;2023-05-09T10:25:20;100795.41;;;25.54;47.11
5812;BME280;2932;52.400;9.558;2023-05-09T10:27:47;100801.06;;;25.22;47.06
5812;BME280;2932;52.400;9.558;2023-05-09T10:32:57;100787.81;;;25.03;47.27
5812;BME280;2932;52.400;9.558;2023-05-09T10:35:29;100781.44;;;25.31;47.36
5812;BME280;2932;52.400;9.558;2023-05-09T10:37:55;100783.63;;;25.56;46.76
5812;BME280;2932;52.400;9.558;2023-05-09T10:40:21;100772.91;;;25.64;46.11
5812;BME280;2932;52.400;9.558;2023-05-09T10:42:47;100762.44;;;25.77;46.16
5812;BME280;2932;52.400;9.558;2023-05-09T10:45:13;100772.22;;;25.43;46.02
5812;BME280;2932;52.400;9.558;2023-05-09T10:47:39;100764.03;;;25.62;45.61
5812;BME280;2932;52.400;9.558;2023-05-09T10:50:07;100752.88;;;25.71;45.43
5812;BME280;2932;52.400;9.558;2023-05-09T10:52:33;100751.59;;;25.88;45.30
5812;BME280;2932;52.400;9.558;2023-05-09T10:55:00;100742.31;;;26.00;45.46
5812;BME280;2932;52.400;9.558;2023-05-09T10:57:27;100744.16;;;26.07;45.68
5812;BME280;2932;52.400;9.558;2023-05-09T10:59:54;100749.56;;;25.88;45.79
5812;BME280;2932;52.400;9.558;2023-05-09T11:02:19;100724.66;;;26.09;46.29
5812;BME280;2932;52.400;9.558;2023-05-09T11:04:45;100727.13;;;26.36;44.99
5812;BME280;2932;52.400;9.558;2023-05-09T11:07:25;100727.47;;;26.38;44.88
5812;BME280;2932;52.400;9.558;2023-05-09T11:09:52;100718.34;;;26.30;44.82
5812;BME280;2932;52.400;9.558;2023-05-09T11:12:19;100728.19;;;26.13;44.78
5812;BME280;2932;52.400;9.558;2023-05-09T11:14:49;100724.31;;;26.07;45.20
5812;BME280;2932;52.400;9.558;2023-05-09T11:22:30;100707.06;;;26.14;44.98
5812;BME280;2932;52.400;9.558;2023-05-09T11:25:06;100701.28;;;26.17;44.59
5812;BME280;2932;52.400;9.558;2023-05-09T11:27:45;100704.66;;;26.00;44.81
5812;BME280;2932;52.400;9.558;2023-05-09T11:30:14;100709.00;;;26.17;45.18
5812;BME280;2932;52.400;9.558;2023-05-09T11:32:49;100716.22;;;26.34;44.88
5812;BME280;2932;52.400;9.558;2023-05-09T11:35:17;100678.19;;;26.44;43.60
5812;BME280;2932;52.400;9.558;2023-05-09T11:40:15;100687.84;;;26.72;44.42
5812;BME280;2932;52.400;9.558;2023-05-09T11:42:42;100685.53;;;26.92;43.91
5812;BME280;2932;52.400;9.558;2023-05-09T11:45:09;100685.88;;;26.95;44.64
5812;BME280;2932;52.400;9.558;2023-05-09T11:47:38;100684.50;;;26.86;44.66
5812;BME280;2932;52.400;9.558;2023-05-09T11:50:08;100680.00;;;26.76;44.46
5812;BME280;2932;52.400;9.558;2023-05-09T11:52:35;100676.22;;;27.05;44.40
5812;BME280;2932;52.400;9.558;2023-05-09T11:55:04;100673.81;;;27.16;43.95
5812;BME280;2932;52.400;9.558;2023-05-09T11:57:30;100671.47;;;27.23;43.64
5812;BME280;2932;52.400;9.558;2023-05-09T11:59:55;100661.34;;;27.35;43.61
5812;BME280;2932;52.400;9.558;2023-05-09T12:02:21;100657.94;;;27.06;44.32
5812;BME280;2932;52.400;9.558;2023-05-09T12:04:47;100661.66;;;27.15;44.51
5812;BME280;2932;52.400;9.558;2023-05-09T12:07:13;100659.44;;;27.19;44.93
5812;BME280;2932;52.400;9.558;2023-05-09T12:09:38;100664.69;;;27.21;43.92
5812;BME280;2932;52.400;9.558;2023-05-09T12:12:10;100650.34;;;27.59;43.93
5812;BME280;2932;52.400;9.558;2023-05-09T12:14:37;100675.16;;;27.46;43.87
5812;BME280;2932;52.400;9.558;2023-05-09T12:17:04;100640.53;;;27.60;43.96
5812;BME280;2932;52.400;9.558;2023-05-09T12:19:30;100640.53;;;27.82;43.98
5812;BME280;2932;52.400;9.558;2023-05-09T12:22:00;100632.16;;;27.78;43.35
5812;BME280;2932;52.400;9.558;2023-05-09T12:24:27;100635.38;;;27.89;43.06
5812;BME280;2932;52.400;9.558;2023-05-09T12:26:54;100631.00;;;27.98;42.71
5812;BME280;2932;52.400;9.558;2023-05-09T12:29:24;100625.53;;;27.81;43.15
5812;BME280;2932;52.400;9.558;2023-05-09T12:31:51;100614.44;;;27.52;43.04
5812;BME280;2932;52.400;9.558;2023-05-09T12:34:17;100622.50;;;27.76;43.29
5812;BME280;2932;52.400;9.558;2023-05-09T12:36:44;100629.34;;;27.44;43.01
5812;BME280;2932;52.400;9.558;2023-05-09T12:39:18;100619.44;;;27.48;42.48
5812;BME280;2932;52.400;9.558;2023-05-09T12:41:50;100612.78;;;27.64;42.76
5812;BME280;2932;52.400;9.558;2023-05-09T12:44:24;100623.09;;;27.71;43.03
5812;BME280;2932;52.400;9.558;2023-05-09T12:49:22;100613.16;;;28.06;42.49
5812;BME280;2932;52.400;9.558;2023-05-09T12:51:49;100620.63;;;27.82;42.73
5812;BME280;2932;52.400;9.558;2023-05-09T12:54:25;100623.84;;;27.28;42.93
5812;BME280;2932;52.400;9.558;2023-05-09T12:56:52;100603.69;;;26.78;44.34
5812;BME280;2932;52.400;9.558;2023-05-09T12:59:20;100612.31;;;26.75;44.53
5812;BME280;2932;52.400;9.558;2023-05-09T13:01:51;100612.34;;;26.49;44.54
5812;BME280;2932;52.400;9.558;2023-05-09T13:04:18;100610.88;;;26.45;44.68
5812;BME280;2932;52.400;9.558;2023-05-09T13:06:51;100599.97;;;26.18;45.17
5812;BME280;2932;52.400;9.558;2023-05-09T13:09:18;100592.72;;;26.30;44.62
5812;BME280;2932;52.400;9.558;2023-05-09T13:11:44;100596.00;;;26.15;44.54
5812;BME280;2932;52.400;9.558;2023-05-09T13:14:10;100590.22;;;26.44;44.49
5812;BME280;2932;52.400;9.558;2023-05-09T13:16:36;100584.63;;;26.66;44.59
5812;BME280;2932;52.400;9.558;2023-05-09T13:19:01;100572.94;;;27.11;43.96
5812;BME280;2932;52.400;9.558;2023-05-09T13:21:26;100572.66;;;26.84;44.44
5812;BME280;2932;52.400;9.558;2023-05-09T13:23:52;100562.41;;;27.21;44.19
5812;BME280;2932;52.400;9.558;2023-05-09T13:26:17;100562.00;;;27.32;43.44
5812;BME280;2932;52.400;9.558;2023-05-09T13:28:43;100566.19;;;27.40;43.52
5812;BME280;2932;52.400;9.558;2023-05-09T13:31:08;100569.34;;;27.64;43.35
5812;BME280;2932;52.400;9.558;2023-05-09T13:33:33;100569.72;;;27.75;43.14
5812;BME280;2932;52.400;9.558;2023-05-09T13:35:59;100564.03;;;27.75;43.50